createdAt,value
2019-04-04T00:01:01.636Z,24.37
2019-04-04T00:04:09.253Z,28.20
2019-04-04T00:07:16.732Z,29.97
2019-04-04T00:10:25.538Z,28.60
2019-04-04T00:13:33.656Z,25.93
2019-04-04T00:16:41.230Z,26.70
2019-04-04T00:19:48.724Z,26.10
2019-04-04T00:22:56.226Z,25.93
2019-04-04T00:26:03.733Z,27.17
2019-04-04T00:29:11.292Z,26.03
2019-04-04T00:32:21.105Z,28.57
2019-04-04T00:35:30.761Z,26.90
2019-04-04T00:38:38.544Z,26.70
2019-04-04T00:41:46.289Z,27.27
2019-04-04T00:44:55.626Z,26.40
2019-04-04T00:48:03.944Z,26.77
2019-04-04T00:51:11.511Z,26.10
2019-04-04T00:54:18.969Z,26.47
2019-04-04T00:57:26.499Z,26.13
2019-04-04T01:00:33.929Z,27.80
2019-04-04T01:03:41.503Z,28.53
2019-04-04T01:06:49.573Z,30.00
2019-04-04T01:09:57.064Z,28.33
2019-04-04T01:13:04.787Z,31.00
2019-04-04T01:16:12.362Z,30.37
2019-04-04T01:19:19.838Z,31.30
2019-04-04T01:22:27.367Z,28.23
2019-04-04T01:25:35.019Z,31.17
2019-04-04T01:28:42.500Z,30.90
2019-04-04T01:31:49.993Z,35.33
2019-04-04T01:34:57.538Z,35.57
2019-04-04T01:38:05.157Z,36.27
2019-04-04T01:41:12.595Z,35.83
2019-04-04T01:44:20.215Z,37.60
2019-04-04T01:47:27.727Z,37.30
2019-04-04T01:50:35.345Z,36.87
2019-04-04T01:53:42.801Z,34.43
2019-04-04T01:56:50.269Z,33.57
2019-04-04T01:59:57.875Z,31.10
2019-04-04T02:03:05.400Z,31.37
2019-04-04T02:06:12.993Z,34.57
2019-04-04T02:09:21.041Z,31.40
2019-04-04T02:12:30.477Z,31.63
2019-04-04T02:15:38.047Z,32.60
2019-04-04T02:18:45.672Z,33.10
2019-04-04T02:21:53.227Z,28.57
2019-04-04T02:25:02.755Z,32.23
2019-04-04T02:28:09.941Z,31.57
2019-04-04T02:31:20.611Z,32.27
2019-04-04T02:34:27.191Z,29.17
2019-04-04T02:37:34.768Z,29.87
2019-04-04T02:40:42.387Z,30.17
2019-04-04T02:43:51.060Z,32.53
2019-04-04T02:46:58.565Z,30.70
2019-04-04T02:50:07.566Z,33.13
2019-04-04T02:53:19.386Z,30.77
2019-04-04T02:56:24.238Z,33.07
2019-04-04T02:59:31.699Z,32.07
2019-04-04T03:02:39.213Z,33.83
2019-04-04T03:05:50.963Z,32.40
2019-04-04T03:08:55.986Z,35.20
2019-04-04T03:12:03.536Z,34.30
2019-04-04T03:15:11.246Z,34.73
2019-04-04T03:18:18.806Z,34.83
2019-04-04T03:21:26.334Z,36.77
2019-04-04T03:24:33.810Z,31.50
2019-04-04T03:27:41.360Z,35.60
2019-04-04T03:31:00.846Z,33.93
2019-04-04T03:33:58.246Z,33.43
2019-04-04T03:37:06.558Z,32.63
2019-04-04T03:40:15.069Z,34.23
2019-04-04T03:43:23.590Z,31.63
2019-04-04T03:46:35.878Z,32.97
2019-04-04T03:49:40.455Z,34.93
2019-04-04T03:52:48.177Z,33.40
2019-04-04T03:56:00.211Z,34.60
2019-04-04T03:59:05.942Z,34.20
2019-04-04T04:02:17.822Z,31.53
2019-04-04T04:05:27.332Z,31.10
2019-04-04T04:08:34.877Z,33.90
2019-04-04T04:11:42.508Z,33.23
2019-04-04T04:14:53.863Z,32.00
2019-04-04T04:18:00.072Z,34.80
2019-04-04T04:21:10.951Z,33.60
2019-04-04T04:24:16.732Z,33.73
2019-04-04T04:27:24.526Z,35.57
2019-04-04T04:30:33.327Z,33.07
2019-04-04T04:33:40.980Z,35.03
2019-04-04T04:36:48.686Z,34.77
2019-04-04T04:39:56.140Z,35.37
2019-04-04T04:43:04.848Z,36.67
2019-04-04T04:46:16.909Z,35.43
2019-04-04T04:49:23.327Z,34.70
2019-04-04T04:52:30.604Z,33.30
2019-04-04T04:55:38.107Z,34.40
2019-04-04T04:58:45.591Z,34.47
2019-04-04T05:01:53.047Z,32.30
2019-04-04T05:05:00.571Z,32.03
2019-04-04T05:08:09.878Z,31.70
2019-04-04T05:11:19.103Z,31.77
2019-04-04T05:14:27.804Z,29.63
2019-04-04T05:17:35.673Z,31.50
2019-04-04T05:20:43.138Z,32.97
2019-04-04T05:23:50.771Z,34.10
2019-04-04T05:26:58.371Z,35.03
2019-04-04T05:30:08.363Z,35.00
2019-04-04T05:33:15.871Z,35.27
2019-04-04T05:36:23.492Z,36.30
2019-04-04T05:39:31.061Z,34.47
2019-04-04T05:42:38.927Z,35.77
2019-04-04T05:45:46.423Z,37.90
2019-04-04T05:48:53.943Z,38.33
2019-04-04T05:52:01.481Z,37.63
2019-04-04T05:55:10.919Z,39.70
2019-04-04T05:58:21.576Z,38.23
2019-04-04T06:01:27.397Z,41.83
2019-04-04T06:04:34.882Z,38.23
2019-04-04T06:07:42.444Z,39.23
2019-04-04T06:10:50.247Z,35.90
2019-04-04T06:13:59.122Z,38.23
2019-04-04T06:17:07.857Z,39.60
2019-04-04T06:20:15.715Z,38.40
2019-04-04T06:23:25.097Z,39.13
2019-04-04T06:26:32.411Z,36.50
2019-04-04T06:29:39.887Z,33.53
2019-04-04T06:32:49.194Z,32.90
2019-04-04T06:35:58.138Z,36.80
2019-04-04T06:39:08.223Z,38.83
2019-04-04T06:42:15.822Z,39.67
2019-04-04T06:45:23.337Z,30.50
2019-04-04T06:48:33.857Z,32.47
2019-04-04T06:51:39.950Z,33.97
2019-04-04T06:54:47.400Z,33.07
2019-04-04T06:57:54.922Z,32.33
2019-04-04T07:01:02.580Z,31.77
2019-04-04T07:04:10.123Z,34.57
2019-04-04T07:07:17.720Z,33.23
2019-04-04T07:10:25.377Z,31.40
2019-04-04T07:13:42.121Z,33.03
2019-04-04T07:16:42.189Z,31.03
2019-04-04T07:19:49.755Z,28.67
2019-04-04T07:22:57.479Z,30.90
2019-04-04T07:26:05.537Z,29.97
2019-04-04T07:29:15.205Z,28.40
2019-04-04T07:32:22.707Z,27.73
2019-04-04T07:35:30.300Z,26.53
2019-04-04T07:38:38.073Z,27.33
2019-04-04T07:41:45.636Z,26.60
2019-04-04T07:44:54.710Z,25.93
2019-04-04T07:48:03.546Z,26.13
2019-04-04T07:51:12.313Z,24.93
2019-04-04T07:54:19.807Z,25.03
2019-04-04T07:57:30.007Z,21.70
2019-04-04T08:00:36.604Z,18.13
2019-04-04T08:03:44.401Z,14.57
2019-04-04T08:06:51.919Z,8.67
2019-04-04T08:09:59.575Z,11.80
2019-04-04T08:13:07.130Z,8.40
2019-04-04T08:16:15.725Z,7.37
2019-04-04T08:19:23.230Z,7.67
2019-04-04T08:22:30.668Z,9.47
2019-04-04T08:25:39.122Z,10.43
2019-04-04T08:28:46.673Z,10.70
2019-04-04T08:31:54.256Z,9.97
2019-04-04T08:35:01.838Z,9.40
2019-04-04T08:38:09.500Z,10.07
2019-04-04T08:41:17.043Z,10.77
2019-04-04T08:44:24.515Z,11.93
2019-04-04T08:47:32.039Z,7.97
2019-04-04T08:50:40.012Z,8.00
2019-04-04T08:53:47.609Z,10.43
2019-04-04T08:56:55.193Z,5.40
2019-04-04T09:00:02.832Z,10.17
2019-04-04T09:03:11.894Z,9.73
2019-04-04T09:06:19.968Z,10.70
2019-04-04T09:09:27.513Z,9.33
2019-04-04T09:12:35.000Z,7.20
2019-04-04T09:15:42.722Z,9.60
2019-04-04T09:18:50.202Z,11.80
2019-04-04T09:21:57.684Z,13.60
2019-04-04T09:25:06.225Z,11.30
2019-04-04T09:28:14.794Z,10.60
2019-04-04T09:31:22.323Z,11.43
2019-04-04T09:34:29.848Z,7.73
2019-04-04T09:37:37.404Z,6.93
2019-04-04T09:40:44.947Z,8.80
2019-04-04T09:43:52.444Z,11.70
2019-04-04T09:47:05.497Z,10.27
2019-04-04T09:50:10.296Z,9.23
2019-04-04T09:53:17.735Z,10.10
2019-04-04T09:56:25.597Z,9.73
2019-04-04T09:59:33.066Z,10.20
2019-04-04T10:02:40.551Z,8.77
2019-04-04T10:05:48.644Z,11.90
2019-04-04T10:08:57.336Z,8.33
2019-04-04T10:12:04.796Z,9.20
2019-04-04T10:15:12.997Z,9.07
2019-04-04T10:18:20.574Z,10.87
2019-04-04T10:21:28.191Z,9.60
2019-04-04T10:24:35.710Z,9.07
2019-04-04T10:27:43.236Z,10.20
2019-04-04T10:30:50.868Z,8.53
2019-04-04T10:33:58.482Z,8.67
2019-04-04T10:37:05.942Z,9.03
2019-04-04T10:40:13.722Z,10.10
2019-04-04T10:43:21.302Z,8.33
2019-04-04T10:46:28.878Z,9.00
2019-04-04T10:49:36.583Z,10.47
2019-04-04T10:52:44.235Z,7.57
2019-04-04T10:55:51.841Z,10.57
2019-04-04T10:58:59.462Z,7.80
2019-04-04T11:02:07.602Z,8.10
2019-04-04T11:05:15.357Z,7.80
2019-04-04T11:08:23.030Z,6.37
2019-04-04T11:11:30.502Z,7.60
2019-04-04T11:14:38.092Z,9.70
2019-04-04T11:17:45.802Z,11.90
2019-04-04T11:20:53.446Z,11.00
2019-04-04T11:24:01.014Z,10.70
2019-04-04T11:27:08.590Z,10.30
2019-04-04T11:30:17.266Z,8.90
2019-04-04T11:33:24.874Z,7.60
2019-04-04T11:36:32.430Z,9.67
2019-04-04T11:39:39.992Z,10.63
2019-04-04T11:42:47.636Z,7.83
2019-04-04T11:45:55.085Z,7.77
2019-04-04T11:49:02.570Z,10.03
2019-04-04T11:52:10.076Z,6.53
2019-04-04T11:55:17.592Z,9.83
2019-04-04T11:58:25.082Z,9.60
2019-04-04T12:01:33.623Z,7.63
2019-04-04T12:04:41.084Z,10.40
2019-04-04T12:07:48.514Z,7.03
2019-04-04T12:10:55.991Z,10.33
2019-04-04T12:14:05.398Z,7.90
2019-04-04T12:17:13.009Z,6.83
2019-04-04T12:20:20.614Z,9.70
2019-04-04T12:23:28.183Z,8.33
2019-04-04T12:26:35.776Z,8.70
2019-04-04T12:29:43.304Z,10.77
2019-04-04T12:32:50.780Z,9.23
2019-04-04T12:35:58.314Z,7.03
2019-04-04T12:39:08.786Z,9.37
2019-04-04T12:42:16.388Z,8.03
2019-04-04T12:45:24.271Z,8.70
2019-04-04T12:48:32.574Z,5.60
2019-04-04T12:51:42.272Z,7.53
2019-04-04T12:54:49.806Z,7.10
2019-04-04T12:57:57.328Z,5.90
2019-04-04T13:01:04.841Z,8.07
2019-04-04T13:04:12.316Z,6.47
2019-04-04T13:07:19.764Z,9.43
2019-04-04T13:10:33.387Z,7.60
2019-04-04T13:13:38.371Z,7.10
2019-04-04T13:16:46.595Z,8.33
2019-04-04T13:19:54.376Z,8.17
2019-04-04T13:23:02.697Z,9.50
2019-04-04T13:26:10.826Z,9.23
2019-04-04T13:29:18.501Z,8.50
2019-04-04T13:32:25.988Z,9.50
2019-04-04T13:35:33.436Z,8.73
2019-04-04T13:38:41.074Z,8.10
2019-04-04T13:41:48.663Z,8.03
2019-04-04T13:44:56.191Z,9.10
2019-04-04T13:48:03.704Z,8.77
2019-04-04T13:51:11.215Z,7.40
2019-04-04T13:54:18.806Z,8.50
2019-04-04T13:57:26.429Z,7.63
2019-04-04T14:00:33.987Z,8.03
2019-04-04T14:03:43.219Z,8.93
2019-04-04T14:06:50.807Z,11.23
2019-04-04T14:09:59.516Z,9.43
2019-04-04T14:13:07.010Z,13.23
2019-04-04T14:16:15.738Z,12.87
2019-04-04T14:19:23.500Z,10.10
2019-04-04T14:22:31.079Z,7.90
2019-04-04T14:25:38.549Z,9.73
2019-04-04T14:28:46.069Z,8.40
2019-04-04T14:31:53.641Z,8.67
2019-04-04T14:35:01.902Z,8.47
2019-04-04T14:38:09.561Z,9.10
2019-04-04T14:41:18.141Z,8.93
2019-04-04T14:44:28.032Z,10.03
2019-04-04T14:47:37.039Z,9.87
2019-04-04T14:50:44.890Z,9.20
2019-04-04T14:53:52.465Z,8.77
2019-04-04T14:57:00.138Z,8.73
2019-04-04T15:00:09.454Z,9.50
2019-04-04T15:03:19.244Z,11.57
2019-04-04T15:06:26.849Z,10.27
2019-04-04T15:09:34.561Z,11.13
2019-04-04T15:12:42.102Z,11.53
2019-04-04T15:16:18.545Z,12.43
2019-04-04T15:19:26.624Z,13.43
2019-04-04T15:22:34.125Z,10.70
2019-04-04T15:25:41.634Z,10.40
2019-04-04T15:28:49.596Z,10.23
2019-04-04T15:31:57.168Z,10.13
2019-04-04T15:35:04.847Z,8.43
2019-04-04T15:38:12.456Z,12.10
2019-04-04T15:41:20.443Z,8.67
2019-04-04T15:44:28.163Z,12.80
2019-04-04T15:47:35.774Z,11.63
2019-04-04T15:50:43.467Z,11.67
2019-04-04T15:53:51.361Z,12.87
2019-04-04T15:56:58.981Z,11.93
2019-04-04T16:00:08.289Z,14.30
2019-04-04T16:03:15.997Z,12.23
2019-04-04T16:06:23.639Z,12.73
2019-04-04T16:09:31.168Z,8.20
2019-04-04T16:12:38.765Z,10.10
2019-04-04T16:15:46.416Z,10.83
2019-04-04T16:18:53.960Z,18.30
2019-04-04T16:22:02.736Z,15.50
2019-04-04T16:25:10.421Z,10.80
2019-04-04T16:28:18.027Z,11.67
2019-04-04T16:31:25.701Z,11.27
2019-04-04T16:34:33.398Z,11.03
2019-04-04T16:37:41.144Z,13.60
2019-04-04T16:40:49.141Z,13.20
2019-04-04T16:43:56.807Z,10.40
2019-04-04T16:47:04.646Z,14.90
2019-04-04T16:50:14.042Z,14.60
2019-04-04T16:53:21.651Z,13.17
2019-04-04T16:56:29.404Z,16.30
2019-04-04T16:59:37.198Z,12.57
2019-04-04T17:02:45.375Z,7.33
2019-04-04T17:05:52.875Z,15.83
2019-04-04T17:09:00.559Z,16.23
2019-04-04T17:12:15.077Z,19.37
2019-04-04T17:15:19.359Z,20.30
2019-04-04T17:18:27.004Z,18.83
2019-04-04T17:21:34.983Z,19.07
2019-04-04T17:24:42.754Z,12.10
2019-04-04T17:27:50.224Z,20.10
2019-04-04T17:30:57.902Z,20.80
2019-04-04T17:34:08.934Z,22.33
2019-04-04T17:37:16.646Z,20.90
2019-04-04T17:40:24.207Z,21.30
2019-04-04T17:43:32.378Z,23.13
2019-04-04T17:46:40.103Z,22.90
2019-04-04T17:49:47.945Z,22.80
2019-04-04T17:52:55.596Z,24.43
2019-04-04T17:56:04.057Z,31.17
2019-04-04T17:59:11.748Z,43.40
2019-04-04T18:02:19.350Z,47.17
2019-04-04T18:05:27.119Z,36.03
2019-04-04T18:08:34.714Z,44.23
2019-04-04T18:11:42.381Z,44.60
2019-04-04T18:14:51.307Z,29.97
2019-04-04T18:18:00.474Z,29.87
2019-04-04T18:21:08.389Z,24.23
2019-04-04T18:24:16.109Z,25.60
2019-04-04T18:27:23.818Z,31.23
2019-04-04T18:30:31.465Z,33.60
2019-04-04T18:33:40.294Z,32.00
2019-04-04T18:36:48.521Z,32.80
2019-04-04T18:39:56.072Z,32.57
2019-04-04T18:43:03.729Z,31.20
2019-04-04T18:46:11.265Z,26.60
2019-04-04T18:49:18.942Z,24.80
2019-04-04T18:52:26.599Z,26.50
2019-04-04T18:55:34.198Z,23.77
2019-04-04T18:58:41.797Z,31.37
2019-04-04T19:01:52.092Z,35.60
2019-04-04T19:04:59.613Z,31.33
2019-04-04T19:08:07.189Z,26.87
2019-04-04T19:11:14.692Z,24.53
2019-04-04T19:14:22.292Z,25.03
2019-04-04T19:17:29.749Z,22.87
2019-04-04T19:20:37.539Z,26.07
2019-04-04T19:23:49.489Z,24.37
2019-04-04T19:26:54.415Z,21.30
2019-04-04T19:30:02.028Z,21.70
2019-04-04T19:33:09.581Z,22.73
2019-04-04T19:36:17.238Z,24.13
2019-04-04T19:39:25.095Z,25.73
2019-04-04T19:42:32.663Z,25.27
2019-04-04T19:45:40.285Z,25.00
2019-04-04T19:48:48.448Z,23.93
2019-04-04T19:51:56.065Z,24.17
2019-04-04T19:55:03.934Z,23.53
2019-04-04T19:58:13.205Z,24.83
2019-04-04T20:01:20.795Z,25.87
2019-04-04T20:04:28.382Z,29.77
2019-04-04T20:07:36.315Z,32.33
2019-04-04T20:10:43.869Z,31.83
2019-04-04T20:13:51.941Z,31.17
2019-04-04T20:17:00.813Z,32.23
2019-04-04T20:20:09.564Z,29.80
2019-04-04T20:23:17.351Z,28.57
2019-04-04T20:26:25.045Z,28.37
2019-04-04T20:29:32.761Z,22.80
2019-04-04T20:32:40.369Z,27.00
2019-04-04T20:35:48.333Z,27.17
2019-04-04T20:38:55.779Z,28.27
2019-04-04T20:42:03.451Z,25.97
2019-04-04T20:45:11.193Z,23.37
2019-04-04T20:48:18.721Z,24.87
2019-04-04T20:51:26.286Z,26.30
2019-04-04T20:54:33.955Z,25.33
2019-04-04T20:57:41.573Z,24.87
2019-04-04T21:00:49.114Z,24.30
2019-04-04T21:03:56.776Z,25.87
2019-04-04T21:07:04.361Z,25.30
2019-04-04T21:10:12.367Z,24.50
2019-04-04T21:13:19.995Z,25.10
2019-04-04T21:16:27.580Z,25.50
2019-04-04T21:19:35.171Z,26.93
2019-04-04T21:22:42.642Z,26.50
2019-04-04T21:25:50.165Z,26.07
2019-04-04T21:28:57.659Z,26.07
2019-04-04T21:32:05.231Z,29.10
2019-04-04T21:35:14.442Z,29.30
2019-04-04T21:38:21.973Z,26.77
2019-04-04T21:41:29.453Z,26.37
2019-04-04T21:44:36.995Z,26.00
2019-04-04T21:47:44.477Z,28.97
2019-04-04T21:50:52.045Z,30.80
2019-04-04T21:53:59.625Z,28.93
2019-04-04T21:57:07.141Z,28.47
2019-04-04T22:00:14.747Z,32.03
2019-04-04T22:03:23.970Z,28.40
2019-04-04T22:06:31.437Z,30.10
2019-04-04T22:09:38.933Z,29.83
2019-04-04T22:12:46.441Z,30.43
2019-04-04T22:15:54.007Z,28.93
2019-04-04T22:19:01.586Z,29.10
2019-04-04T22:22:09.291Z,29.47
2019-04-04T22:25:16.737Z,28.87
2019-04-04T22:28:24.220Z,29.67
2019-04-04T22:31:31.708Z,28.37
2019-04-04T22:34:39.231Z,28.30
2019-04-04T22:37:46.727Z,28.90
2019-04-04T22:40:54.228Z,28.43
2019-04-04T22:44:03.820Z,28.53
2019-04-04T22:47:12.613Z,30.27
2019-04-04T22:50:20.118Z,28.30
2019-04-04T22:53:27.673Z,29.40
2019-04-04T22:56:35.265Z,27.50
2019-04-04T22:59:42.738Z,29.10
2019-04-04T23:02:50.281Z,29.10
2019-04-04T23:05:57.791Z,29.27
2019-04-04T23:09:08.215Z,28.43
2019-04-04T23:12:15.859Z,30.20
2019-04-04T23:15:23.333Z,27.27
2019-04-04T23:18:30.787Z,31.60
2019-04-04T23:21:40.103Z,28.87
2019-04-04T23:24:47.710Z,29.90
2019-04-04T23:27:55.281Z,30.07
2019-04-04T23:31:02.759Z,29.63
2019-04-04T23:34:10.288Z,29.23
2019-04-04T23:37:17.789Z,28.57
2019-04-04T23:40:25.287Z,28.40
2019-04-04T23:43:32.794Z,29.03
2019-04-04T23:46:40.309Z,28.10
2019-04-04T23:49:47.763Z,29.73
2019-04-04T23:52:55.321Z,28.23
2019-04-04T23:56:03.124Z,26.07
2019-04-04T23:59:10.795Z,28.03
